Time;durP1;ratioP1;P1;durP2;ratioP2;P2;SDS_P1;SDS_P2;PMS_P1;PMS_P2;Temp;Humidity;BMP_temperature;BMP_pressure;BME280_temperature;BME280_humidity;BME280_pressure;Samples;Min_cycle;Max_cycle;Signal;HPM_P1;HPM_P2
2021/08/23 00:01:36;;;;;;;10.63;8.45;;;;;;;23.43;44.42;100090.34;1778912;80;21022;-69
2021/08/23 00:04:04;;;;;;;9.93;8.58;;;;;;;23.40;44.48;100087.60;1789244;80;21071;-69
2021/08/23 00:06:30;;;;;;;10.72;8.30;;;;;;;23.40;44.50;100088.14;1797027;78;21049;-69
2021/08/23 00:08:59;;;;;;;10.50;7.62;;;;;;;23.37;44.55;100093.50;1782122;79;21078;-69
2021/08/23 00:11:26;;;;;;;11.65;8.10;;;;;;;;;;1782181;80;21992;-69
2021/08/23 00:13:53;;;;;;;11.20;8.93;;;;;;;23.34;44.67;100094.00;1761465;80;21113;-69
2021/08/23 00:16:20;;;;;;;8.83;7.92;;;;;;;23.33;44.69;100090.99;1798961;78;21022;-68
2021/08/23 00:18:48;;;;;;;10.38;8.35;;;;;;;23.32;44.74;100094.78;1796441;78;21008;-68
2021/08/23 00:21:21;;;;;;;11.03;8.20;;;;;;;23.30;44.81;100099.09;1795089;78;21100;-69
2021/08/23 00:23:50;;;;;;;8.95;8.05;;;;;;;23.30;44.84;100095.02;1785510;80;21129;-69
2021/08/23 00:26:14;;;;;;;10.25;8.53;;;;;;;23.28;44.88;100097.16;1778494;79;21085;-69
2021/08/23 00:28:42;;;;;;;11.15;8.23;;;;;;;23.27;44.95;100094.14;1790298;79;21009;-69
2021/08/23 00:31:09;;;;;;;9.73;8.43;;;;;;;23.26;44.98;100088.45;1779257;79;21054;-68
2021/08/23 00:33:37;;;;;;;11.60;8.00;;;;;;;23.25;45.00;100092.20;1773071;79;21061;-69
2021/08/23 00:36:04;;;;;;;11.25;8.63;;;;;;;23.24;45.06;100090.58;1795503;79;21317;-70
2021/08/23 00:38:31;;;;;;;9.43;8.00;;;;;;;23.23;45.12;100092.17;1780025;79;21046;-68
2021/08/23 00:40:57;;;;;;;10.25;7.90;;;;;;;23.22;45.16;100090.52;1777460;79;21102;-68
2021/08/23 00:43:24;;;;;;;11.20;8.03;;;;;;;23.21;45.17;100092.41;1773262;79;21023;-67
2021/08/23 00:45:50;;;;;;;10.13;7.75;;;;;;;23.20;45.21;100097.55;1773087;79;21037;-68
2021/08/23 00:48:17;;;;;;;11.25;8.48;;;;;;;23.18;45.21;100099.69;1788231;79;21153;-68
2021/08/23 00:50:43;;;;;;;9.15;8.18;;;;;;;23.16;45.29;100099.11;1780238;79;21467;-68
2021/08/23 00:53:10;;;;;;;10.13;8.68;;;;;;;23.15;45.30;100101.52;1773247;79;21568;-69
2021/08/23 00:55:37;;;;;;;9.25;8.20;;;;;;;23.12;45.37;100100.12;1772986;79;21050;-68
2021/08/23 00:58:04;;;;;;;10.43;8.58;;;;;;;23.11;45.43;100104.42;1773314;79;21085;-69
2021/08/23 01:00:33;;;;;;;10.90;8.00;;;;;;;23.09;45.48;100101.13;1773123;80;21116;-69
2021/08/23 01:03:13;;;;;;;11.30;8.15;;;;;;;23.07;45.56;100097.84;1773099;79;21066;-68
2021/08/23 01:05:41;;;;;;;11.85;8.75;;;;;;;23.04;45.65;100099.13;1792174;79;21025;-69
2021/08/23 01:08:26;;;;;;;12.53;9.25;;;;;;;23.02;45.77;100099.88;1782135;79;21096;-70
2021/08/23 01:10:53;;;;;;;9.45;8.08;;;;;;;23.01;45.79;100100.14;1790352;79;21108;-69
2021/08/23 01:13:23;;;;;;;10.93;7.75;;;;;;;22.98;45.82;100090.59;1778833;79;21159;-70
2021/08/23 01:15:49;;;;;;;9.23;8.18;;;;;;;22.97;45.87;100088.42;1763630;79;21044;-68
2021/08/23 01:18:15;;;;;;;12.43;8.68;;;;;;;22.97;45.92;100095.73;1795999;79;21197;-69
2021/08/23 01:20:43;;;;;;;12.07;8.90;;;;;;;22.95;46.00;100097.32;1787732;79;21033;-70
2021/08/23 01:23:10;;;;;;;12.23;9.43;;;;;;;22.93;46.07;100093.22;1777021;79;21614;-69
2021/08/23 01:25:36;;;;;;;10.65;8.83;;;;;;;22.91;46.13;100093.45;1774580;79;21160;-67
2021/08/23 01:28:32;;;;;;;11.22;8.75;;;;;;;22.90;46.17;100093.15;1769848;80;21043;-69
2021/08/23 01:31:17;;;;;;;10.85;9.43;;;;;;;22.89;46.24;100100.16;1783456;79;21999;-70
2021/08/23 01:33:44;;;;;;;10.75;9.00;;;;;;;22.85;46.32;100097.13;1777077;79;21582;-69
2021/08/23 01:36:12;;;;;;;12.30;9.63;;;;;;;22.82;46.39;100096.25;1783635;79;21091;-68
2021/08/23 01:38:39;;;;;;;11.25;9.15;;;;;;;22.80;46.48;100101.08;1797516;79;21179;-69
2021/08/23 01:41:08;;;;;;;11.00;8.40;;;;;;;22.78;46.55;100101.85;1776506;79;21518;-68
2021/08/23 01:43:35;;;;;;;14.15;9.88;;;;;;;22.76;46.61;100098.03;1783608;79;21056;-69
2021/08/23 01:46:03;;;;;;;12.55;9.45;;;;;;;22.75;46.67;100098.26;1789260;80;21054;-69
2021/08/23 01:48:30;;;;;;;13.22;10.98;;;;;;;22.74;46.74;100092.56;1782640;79;21113;-70
2021/08/23 01:50:57;;;;;;;12.90;10.03;;;;;;;22.72;46.81;100090.63;1807982;78;21089;-68
2021/08/23 01:53:23;;;;;;;13.40;9.95;;;;;;;22.71;46.87;100088.97;1785581;79;21638;-69
2021/08/23 01:55:50;;;;;;;12.58;10.03;;;;;;;22.70;46.95;100092.76;1772993;80;21065;-69
2021/08/23 01:58:16;;;;;;;11.80;9.95;;;;;;;22.69;46.97;100096.52;1794964;80;21095;-69
2021/08/23 02:00:43;;;;;;;13.75;10.40;;;;;;;22.68;47.05;100092.17;1780716;80;21108;-69
2021/08/23 02:03:09;;;;;;;12.82;10.78;;;;;;;22.66;47.07;100089.70;1790771;80;21112;-69
2021/08/23 02:05:38;;;;;;;12.25;10.48;;;;;;;22.65;47.12;100091.29;1827533;78;21017;-69
2021/08/23 02:08:05;;;;;;;11.80;9.80;;;;;;;22.63;47.18;100083.94;1769119;78;21073;-69
2021/08/23 02:10:32;;;;;;;14.23;10.72;;;;;;;22.62;47.25;100087.19;1795366;78;21061;-68
2021/08/23 02:13:00;;;;;;;12.30;9.83;;;;;;;22.59;47.31;100090.36;1813906;78;22046;-71
2021/08/23 02:15:27;;;;;;;14.90;11.30;;;;;;;22.57;47.35;100089.23;1793971;78;21162;-69
2021/08/23 02:17:54;;;;;;;12.90;11.18;;;;;;;22.57;47.37;100088.42;1806626;78;20978;-69
2021/08/23 02:20:20;;;;;;;12.65;10.18;;;;;;;22.54;47.41;100091.09;1800893;78;21029;-68
2021/08/23 02:22:46;;;;;;;17.37;10.75;;;;;;;22.53;47.49;100089.97;1789160;78;21026;-69
2021/08/23 02:25:13;;;;;;;16.40;11.60;;;;;;;22.53;47.53;100088.61;1789458;78;21032;-69
2021/08/23 02:27:40;;;;;;;14.75;10.18;;;;;;;22.51;47.55;100090.73;1751223;78;21118;-69
2021/08/23 02:30:07;;;;;;;14.20;10.75;;;;;;;22.50;47.58;100093.98;1755401;80;21082;-68
2021/08/23 02:32:36;;;;;;;15.93;10.58;;;;;;;22.49;47.70;100096.92;1784132;79;21499;-68
2021/08/23 02:35:06;;;;;;;16.48;11.00;;;;;;;22.48;47.71;100098.78;1774822;80;21084;-68
2021/08/23 02:37:32;;;;;;;12.37;9.98;;;;;;;22.46;47.78;100096.84;1816045;79;21500;-69
2021/08/23 02:39:59;;;;;;;13.78;10.75;;;;;;;22.46;47.83;100102.80;1810683;78;21031;-69
2021/08/23 02:42:28;;;;;;;17.50;11.95;;;;;;;22.43;47.85;100099.23;1789122;78;21024;-69
2021/08/23 02:44:55;;;;;;;17.48;12.28;;;;;;;22.42;47.92;100094.33;1788657;80;21057;-68
2021/08/23 02:47:22;;;;;;;12.47;10.93;;;;;;;22.41;47.94;100098.61;1776169;78;21038;-68
2021/08/23 02:49:49;;;;;;;16.32;12.35;;;;;;;22.37;48.02;100105.06;1773131;80;21645;-69
2021/08/23 02:52:15;;;;;;;17.32;12.47;;;;;;;22.35;48.09;100098.52;1761946;80;21809;-69
2021/08/23 02:54:41;;;;;;;14.13;11.75;;;;;;;22.34;48.14;100100.92;1773044;79;21002;-70
2021/08/23 02:57:08;;;;;;;17.20;12.55;;;;;;;22.33;48.19;100096.59;1761764;80;21040;-68
2021/08/23 02:59:34;;;;;;;14.65;11.30;;;;;;;22.32;48.21;100096.81;1761762;80;21025;-69
2021/08/23 03:02:00;;;;;;;16.17;12.25;;;;;;;22.30;48.24;100097.05;1761669;80;21133;-69
2021/08/23 03:04:27;;;;;;;13.85;10.23;;;;;;;22.29;48.25;100095.42;1764079;79;21154;-70
2021/08/23 03:06:54;;;;;;;15.03;11.50;;;;;;;22.28;48.32;100099.70;1774689;80;21062;-68
2021/08/23 03:09:20;;;;;;;14.87;10.60;;;;;;;22.27;48.38;100101.59;1762041;80;21117;-68
2021/08/23 03:11:47;;;;;;;13.83;11.53;;;;;;;22.26;48.48;100102.64;1761805;80;21064;-70
2021/08/23 03:14:14;;;;;;;17.17;14.40;;;;;;;22.25;48.51;100108.28;1762078;80;21023;-69
2021/08/23 03:16:41;;;;;;;16.97;15.03;;;;;;;22.22;48.60;100105.50;1756325;80;21268;-69
2021/08/23 03:19:07;;;;;;;17.85;13.13;;;;;;;22.21;48.67;100109.79;1761604;80;21044;-70
2021/08/23 03:21:34;;;;;;;14.30;12.43;;;;;;;22.19;48.84;100118.14;1771239;79;21065;-68
2021/08/23 03:24:01;;;;;;;13.78;11.65;;;;;;;22.18;49.00;100117.86;1784642;80;21181;-69
2021/08/23 03:26:27;;;;;;;13.90;11.15;;;;;;;22.16;49.19;100114.03;1766678;80;21013;-69
2021/08/23 03:28:53;;;;;;;15.58;11.03;;;;;;;22.16;49.33;100115.92;1779028;79;21136;-69
2021/08/23 03:31:22;;;;;;;16.65;11.60;;;;;;;22.14;49.39;100120.74;1789520;79;21129;-69
2021/08/23 03:33:49;;;;;;;11.48;10.32;;;;;;;22.12;49.41;100123.68;1787574;79;21036;-70
2021/08/23 03:36:15;;;;;;;14.13;11.73;;;;;;;22.10;49.43;100124.45;1785071;79;21092;-68
2021/08/23 03:38:47;;;;;;;14.58;11.57;;;;;;;22.09;49.47;100121.43;1769416;80;21596;-68
2021/08/23 03:41:11;;;;;;;11.63;10.45;;;;;;;22.08;49.46;100129.27;1784614;79;21117;-69
2021/08/23 03:43:37;;;;;;;14.75;10.70;;;;;;;22.07;49.47;100118.14;1784624;79;21059;-68
2021/08/23 03:46:05;;;;;;;15.32;11.25;;;;;;;22.06;49.46;100123.78;1784670;79;21537;-69
2021/08/23 03:48:31;;;;;;;15.72;11.57;;;;;;;22.04;49.45;100115.92;1784763;79;21509;-70
2021/08/23 03:50:58;;;;;;;15.43;12.18;;;;;;;22.03;49.50;100121.02;1774386;80;21542;-71
2021/08/23 03:53:24;;;;;;;13.95;11.70;;;;;;;22.02;49.50;100119.39;1784718;80;21759;-70
2021/08/23 03:55:52;;;;;;;13.28;11.48;;;;;;;22.01;49.51;100122.33;1767394;80;21073;-70
2021/08/23 03:58:18;;;;;;;15.60;11.33;;;;;;;22.00;49.55;100120.16;1784640;80;21020;-70
2021/08/23 04:00:45;;;;;;;15.63;11.88;;;;;;;21.99;49.60;100127.42;1755534;80;21109;-69
2021/08/23 04:03:12;;;;;;;12.35;11.05;;;;;;;21.99;49.60;100127.42;1796399;79;21061;-70
2021/08/23 04:05:38;;;;;;;13.45;10.75;;;;;;;21.98;49.65;100125.80;1758760;79;21100;-69
2021/08/23 04:08:04;;;;;;;15.50;10.95;;;;;;;21.98;49.66;100125.80;1766291;80;21063;-70
2021/08/23 04:10:31;;;;;;;15.65;11.73;;;;;;;21.97;49.71;100128.73;1784756;80;21009;-70
2021/08/23 04:12:58;;;;;;;15.58;11.20;;;;;;;21.96;49.73;100123.85;1756176;80;21024;-69
2021/08/23 04:15:24;;;;;;;14.03;11.35;;;;;;;21.97;49.75;100124.13;1765811;79;21010;-67
2021/08/23 04:17:51;;;;;;;13.40;10.80;;;;;;;21.98;49.76;100122.24;1764121;80;21150;-69
2021/08/23 04:20:17;;;;;;;12.90;10.58;;;;;;;21.97;49.80;100126.02;1780523;80;21513;-69
2021/08/23 04:22:44;;;;;;;13.20;11.55;;;;;;;21.97;49.79;100124.67;1762438;80;21156;-70
2021/08/23 04:25:10;;;;;;;13.05;11.20;;;;;;;21.97;49.84;100122.78;1777912;80;20986;-70
2021/08/23 04:27:37;;;;;;;14.45;10.50;;;;;;;21.97;49.86;100123.31;1787367;80;21060;-68
2021/08/23 04:30:05;;;;;;;12.70;9.98;;;;;;;21.97;49.88;100120.61;1775954;80;21142;-69
2021/08/23 04:32:31;;;;;;;16.40;10.55;;;;;;;21.97;49.93;100120.61;1769844;79;21053;-70
2021/08/23 04:34:58;;;;;;;13.70;10.60;;;;;;;21.97;49.96;100121.42;1780298;80;21502;-69
2021/08/23 04:37:25;;;;;;;14.45;12.40;;;;;;;21.99;49.90;100117.14;1781847;80;21525;-68
2021/08/23 04:39:51;;;;;;;15.85;11.75;;;;;;;21.99;49.90;100115.79;1782514;79;21074;-69
2021/08/23 04:42:18;;;;;;;14.63;11.68;;;;;;;22.01;49.89;100118.27;1779070;80;21150;-70
2021/08/23 04:44:44;;;;;;;15.63;10.93;;;;;;;22.01;49.88;100121.79;1769446;80;21022;-69
2021/08/23 04:47:11;;;;;;;15.10;9.85;;;;;;;22.02;49.87;100123.45;1775327;80;21282;-70
2021/08/23 04:49:38;;;;;;;16.73;11.38;;;;;;;22.01;49.90;100115.02;1760539;80;21034;-69
2021/08/23 04:52:07;;;;;;;16.27;10.45;;;;;;;22.05;49.96;100122.15;1772832;80;21073;-69
2021/08/23 04:54:33;;;;;;;11.60;9.88;;;;;;;22.07;50.10;100126.80;1791414;79;21174;-70
2021/08/23 04:57:00;;;;;;;15.53;11.45;;;;;;;22.07;50.18;100124.91;1781493;80;21050;-69
2021/08/23 04:59:26;;;;;;;13.10;10.00;;;;;;;22.08;50.25;100125.21;1760685;80;21037;-69
2021/08/23 05:01:53;;;;;;;13.20;10.60;;;;;;;22.10;50.25;100125.80;1783367;80;21153;-68
2021/08/23 05:04:19;;;;;;;14.55;10.10;;;;;;;22.11;50.31;100128.78;1774665;79;21533;-68
2021/08/23 05:06:45;;;;;;;13.13;10.90;;;;;;;22.13;50.51;100119.90;1765692;80;21116;-69
2021/08/23 05:09:12;;;;;;;13.98;9.98;;;;;;;22.14;50.63;100117.50;1782599;79;21006;-68
2021/08/23 05:11:40;;;;;;;14.45;10.63;;;;;;;22.16;50.51;100119.44;1791814;79;21001;-68
2021/08/23 05:14:07;;;;;;;14.73;10.82;;;;;;;22.17;50.31;100125.16;1779832;80;21038;-69
2021/08/23 05:16:33;;;;;;;12.37;10.35;;;;;;;22.20;50.18;100122.50;1765542;80;21046;-69
2021/08/23 05:19:00;;;;;;;12.53;10.00;;;;;;;22.21;50.06;100124.13;1788240;79;21148;-69
2021/08/23 05:21:26;;;;;;;12.93;10.28;;;;;;;22.22;50.20;100129.86;1779431;79;21033;-68
2021/08/23 05:23:54;;;;;;;14.53;10.48;;;;;;;22.24;50.32;100130.98;1769912;79;21066;-68
2021/08/23 05:26:20;;;;;;;12.93;10.88;;;;;;;22.25;50.50;100133.48;1780924;79;21081;-70
2021/08/23 05:28:47;;;;;;;13.38;10.10;;;;;;;22.27;50.57;100125.11;1781848;79;21100;-70
2021/08/23 05:31:13;;;;;;;13.60;10.93;;;;;;;22.30;50.62;100132.77;1778488;79;21124;-70
2021/08/23 05:33:39;;;;;;;11.30;10.13;;;;;;;22.31;50.59;100135.25;1784834;79;21063;-69
2021/08/23 05:36:06;;;;;;;13.22;11.15;;;;;;;22.34;50.57;100133.94;1784490;79;21108;-70
2021/08/23 05:38:33;;;;;;;13.85;11.05;;;;;;;22.37;50.51;100133.48;1802175;79;21025;-69
2021/08/23 05:40:59;;;;;;;14.28;10.88;;;;;;;22.38;50.54;100138.63;1787486;79;21034;-69
2021/08/23 05:43:25;;;;;;;14.53;10.68;;;;;;;22.41;50.67;100139.22;1781645;79;21462;-69
2021/08/23 05:45:52;;;;;;;12.68;9.93;;;;;;;22.43;50.73;100144.70;1776853;79;21477;-69
2021/08/23 05:48:19;;;;;;;13.30;10.50;;;;;;;22.46;50.63;100136.63;1783789;79;21056;-69
2021/08/23 05:50:46;;;;;;;15.13;10.40;;;;;;;22.48;50.50;100141.28;1775839;80;20982;-70
2021/08/23 05:53:12;;;;;;;11.73;10.38;;;;;;;22.50;50.44;100137.30;1767774;79;21043;-69
2021/08/23 05:55:40;;;;;;;11.78;9.63;;;;;;;22.53;50.56;100135.98;1786418;79;21147;-70
2021/08/23 05:58:07;;;;;;;11.08;9.95;;;;;;;22.55;50.75;100134.68;1792636;79;21525;-70
2021/08/23 06:00:33;;;;;;;14.13;10.50;;;;;;;22.57;50.64;100136.62;1770101;79;21550;-70
2021/08/23 06:03:00;;;;;;;12.07;9.65;;;;;;;22.60;50.51;100129.08;1783274;79;21470;-69
2021/08/23 06:05:26;;;;;;;12.58;9.53;;;;;;;22.62;50.46;100132.37;1770298;79;21078;-70
2021/08/23 06:07:54;;;;;;;12.75;10.55;;;;;;;22.65;50.49;100131.91;1770080;79;21007;-70
2021/08/23 06:10:21;;;;;;;11.50;10.28;;;;;;;22.67;50.58;100131.95;1779720;79;21084;-70
2021/08/23 06:12:48;;;;;;;25.70;19.73;;;;;;;22.69;50.64;100127.11;1769944;79;21023;-69
2021/08/23 06:15:14;;;;;;;18.25;15.08;;;;;;;22.71;50.57;100122.28;1770269;79;21062;-69
2021/08/23 06:17:41;;;;;;;17.92;12.80;;;;;;;22.74;50.64;100125.88;1774196;79;21037;-70
2021/08/23 06:20:08;;;;;;;13.90;10.90;;;;;;;22.78;50.64;100127.58;1777139;79;21104;-71
2021/08/23 06:22:37;;;;;;;12.10;9.98;;;;;;;22.81;50.64;100124.92;1770022;79;21581;-68
2021/08/23 06:25:06;;;;;;;13.75;10.40;;;;;;;22.83;50.62;100118.22;1770606;79;21065;-69
2021/08/23 06:27:33;;;;;;;12.98;10.15;;;;;;;22.86;50.57;100123.14;1772732;79;21056;-69
2021/08/23 06:30:01;;;;;;;14.23;10.05;;;;;;;22.89;50.56;100117.25;1779359;79;21097;-69
2021/08/23 06:32:28;;;;;;;15.25;10.63;;;;;;;22.92;50.49;100116.75;1771309;79;21148;-68
2021/08/23 06:34:54;;;;;;;10.32;9.18;;;;;;;22.95;50.47;100119.00;1790574;79;21091;-68
2021/08/23 06:37:21;;;;;;;14.43;9.60;;;;;;;22.99;50.46;100120.70;1801697;78;21033;-69
2021/08/23 06:39:48;;;;;;;13.88;10.18;;;;;;;23.02;50.20;100120.73;1803963;78;21536;-70
2021/08/23 06:42:15;;;;;;;11.05;8.60;;;;;;;23.05;50.04;100118.94;1809126;78;21132;-70
2021/08/23 06:44:41;;;;;;;10.50;8.85;;;;;;;23.10;49.89;100116.31;1816800;78;21154;-68
2021/08/23 06:47:08;;;;;;;11.78;8.65;;;;;;;23.12;49.79;100113.67;1786291;80;21025;-70
2021/08/23 06:49:34;;;;;;;11.40;9.43;;;;;;;23.15;49.82;100109.64;1780948;79;21152;-70
2021/08/23 06:52:01;;;;;;;15.90;10.70;;;;;;;23.19;49.94;100113.52;1786594;79;21064;-69
2021/08/23 06:54:28;;;;;;;12.82;9.20;;;;;;;23.23;49.94;100116.56;1777261;80;21006;-69
2021/08/23 06:56:54;;;;;;;12.55;8.70;;;;;;;23.25;49.73;100116.60;1782659;79;21148;-69
2021/08/23 06:59:21;;;;;;;12.18;9.25;;;;;;;23.30;49.57;100117.25;1785522;79;21050;-69
2021/08/23 07:01:47;;;;;;;11.73;9.58;;;;;;;23.33;49.46;100111.31;1781682;79;21051;-68
2021/08/23 07:04:14;;;;;;;12.47;8.75;;;;;;;23.36;49.39;100104.07;1773344;79;21025;-70
2021/08/23 07:06:40;;;;;;;8.88;7.72;;;;;;;23.41;49.15;100108.23;1773209;79;21017;-68
2021/08/23 07:09:08;;;;;;;8.75;7.72;;;;;;;23.44;48.95;100111.80;1780096;79;21002;-69
2021/08/23 07:11:36;;;;;;;11.35;8.35;;;;;;;23.48;48.61;100104.81;1777161;79;21045;-69
2021/08/23 07:14:02;;;;;;;8.90;8.00;;;;;;;23.51;48.36;100102.98;1773267;79;21033;-69
2021/08/23 07:16:29;;;;;;;8.93;7.30;;;;;;;23.56;48.22;100113.09;1791497;79;21832;-71
2021/08/23 07:18:55;;;;;;;8.40;7.30;;;;;;;23.60;48.00;100108.00;1764090;79;21092;-69
2021/08/23 07:21:22;;;;;;;7.15;6.40;;;;;;;23.64;47.66;100109.99;1762056;80;21136;-69
2021/08/23 07:23:50;;;;;;;9.75;6.83;;;;;;;23.67;47.57;100110.84;1774579;80;21018;-70
2021/08/23 07:26:16;;;;;;;8.58;7.00;;;;;;;23.72;47.58;100111.44;1771131;79;21504;-69
2021/08/23 07:28:43;;;;;;;8.30;7.20;;;;;;;23.75;47.49;100113.67;1774638;80;21043;-69
2021/08/23 07:31:09;;;;;;;9.40;7.62;;;;;;;23.80;47.53;100112.45;1783975;80;21617;-69
2021/08/23 07:33:35;;;;;;;8.65;7.58;;;;;;;23.84;47.27;100118.20;1769030;79;22531;-68
2021/08/23 07:36:03;;;;;;;10.82;7.58;;;;;;;23.88;47.11;100117.45;1780387;79;21080;-68
2021/08/23 07:38:31;;;;;;;10.53;7.65;;;;;;;23.91;47.22;100129.19;1775508;79;21057;-70
2021/08/23 07:40:58;;;;;;;11.25;8.03;;;;;;;23.95;46.94;100129.48;1780997;80;20987;-70
2021/08/23 07:43:24;;;;;;;8.65;7.72;;;;;;;23.99;47.05;100132.53;1762231;80;21063;-70
2021/08/23 07:45:51;;;;;;;8.55;7.40;;;;;;;24.01;46.80;100133.95;1761912;80;21144;-69
2021/08/23 07:48:18;;;;;;;8.95;7.67;;;;;;;24.05;46.73;100141.87;1761825;80;21027;-70
2021/08/23 07:50:44;;;;;;;8.93;8.03;;;;;;;24.08;46.71;100146.79;1762099;80;21003;-69
2021/08/23 07:53:11;;;;;;;9.55;7.62;;;;;;;24.13;46.61;100149.59;1775404;79;21156;-70
2021/08/23 07:55:38;;;;;;;9.53;7.08;;;;;;;24.17;46.42;100147.75;1776828;79;21061;-69
2021/08/23 07:58:04;;;;;;;8.35;7.12;;;;;;;24.21;46.21;100148.89;1768801;80;21111;-68
2021/08/23 08:00:31;;;;;;;18.57;14.65;;;;;;;24.23;46.19;100144.04;1761790;80;21078;-69
2021/08/23 08:02:57;;;;;;;19.15;14.50;;;;;;;24.27;46.21;100143.83;1774863;80;21466;-69
2021/08/23 08:05:24;;;;;;;12.70;9.45;;;;;;;24.31;46.01;100147.14;1761992;80;21011;-70
2021/08/23 08:07:51;;;;;;;10.75;8.70;;;;;;;24.34;46.15;100139.05;1761893;80;21055;-69
2021/08/23 08:10:17;;;;;;;9.78;7.33;;;;;;;24.38;46.16;100144.27;1765960;80;21536;-68
2021/08/23 08:12:44;;;;;;;8.93;7.17;;;;;;;24.43;45.46;100146.22;1777106;80;20994;-70
2021/08/23 08:15:11;;;;;;;6.78;5.53;;;;;;;24.46;45.14;100135.69;1765093;80;21121;-70
2021/08/23 08:17:38;;;;;;;8.45;5.80;;;;;;;24.49;44.96;100143.85;1763893;80;21111;-70
2021/08/23 08:20:07;;;;;;;7.28;5.00;;;;;;;24.53;44.44;100145.87;1772022;80;21049;-70
2021/08/23 08:22:34;;;;;;;5.22;4.72;;;;;;;24.57;44.17;100144.84;1759386;79;21118;-69
2021/08/23 08:25:00;;;;;;;6.47;5.03;;;;;;;24.60;43.93;100151.11;1759564;80;21045;-71
2021/08/23 08:27:26;;;;;;;7.42;5.55;;;;;;;24.64;43.81;100147.36;1810876;79;21029;-68
2021/08/23 08:29:53;;;;;;;8.88;6.22;;;;;;;24.67;43.71;100150.39;1755174;80;21083;-70
2021/08/23 08:32:20;;;;;;;6.35;5.47;;;;;;;24.72;43.40;100153.70;1748605;80;21030;-71
2021/08/23 08:34:46;;;;;;;8.38;5.75;;;;;;;24.75;43.48;100154.57;1765542;80;21126;-69
2021/08/23 08:37:12;;;;;;;8.20;5.67;;;;;;;24.79;43.82;100143.48;1782490;79;21043;-69
2021/08/23 08:39:40;;;;;;;7.53;6.22;;;;;;;24.82;44.12;100141.63;1769032;79;21054;-69
2021/08/23 08:42:07;;;;;;;7.37;5.53;;;;;;;24.87;44.25;100140.86;1784907;79;21096;-71
2021/08/23 08:44:34;;;;;;;7.75;5.42;;;;;;;24.91;44.63;100136.55;1775618;79;21077;-69
2021/08/23 08:47:00;;;;;;;6.62;6.00;;;;;;;24.96;44.48;100135.27;1769049;79;21163;-70
2021/08/23 08:49:27;;;;;;;7.20;5.60;;;;;;;25.00;44.22;100135.04;1768700;79;21040;-70
2021/08/23 08:51:53;;;;;;;7.10;5.45;;;;;;;25.06;44.30;100140.00;1768835;79;21074;-69
2021/08/23 08:54:21;;;;;;;8.58;5.42;;;;;;;25.12;44.50;100137.62;1748014;80;21057;-70
2021/08/23 08:56:47;;;;;;;5.72;5.15;;;;;;;25.16;44.34;100127.88;1761120;80;21105;-70
2021/08/23 08:59:14;;;;;;;5.47;4.97;;;;;;;25.20;44.20;100123.56;1764905;80;21907;-70
2021/08/23 09:01:43;;;;;;;5.62;4.97;;;;;;;25.24;43.96;100120.64;1791993;79;21050;-70
2021/08/23 09:04:09;;;;;;;5.50;4.97;;;;;;;25.30;44.09;100126.44;1775364;80;21057;-69
2021/08/23 09:06:39;;;;;;;8.85;7.83;;;;;;;25.35;43.81;100123.48;1779492;80;21061;-70
2021/08/23 09:09:11;;;;;;;6.85;6.20;;;;;;;25.40;42.60;100127.08;1785126;80;21076;-69
2021/08/23 09:11:40;;;;;;;5.97;5.43;;;;;;;25.45;42.25;100127.11;1776400;79;21055;-69
2021/08/23 09:14:08;;;;;;;5.87;4.75;;;;;;;25.51;41.94;100126.62;1768333;79;21798;-70
2021/08/23 09:16:40;;;;;;;5.00;4.50;;;;;;;25.56;41.97;100113.08;1790040;79;21013;-68
2021/08/23 09:19:07;;;;;;;5.83;4.92;;;;;;;25.62;41.64;100112.03;1771875;79;21083;-69
2021/08/23 09:21:40;;;;;;;5.33;4.85;;;;;;;25.69;41.42;100103.12;1768097;79;21068;-69
2021/08/23 09:24:18;;;;;;;5.58;5.00;;;;;;;25.76;41.05;100104.80;1793655;79;21130;-70
2021/08/23 09:26:45;;;;;;;5.60;5.10;;;;;;;25.82;40.80;100106.48;1779934;79;21103;-70
2021/08/23 09:29:11;;;;;;;5.95;5.10;;;;;;;25.88;40.92;100110.36;1768301;79;21521;-70
2021/08/23 09:32:51;;;;;;;5.17;4.67;;;;;;;25.99;41.17;100098.20;1817882;76;22607;-70
2021/08/23 09:35:34;;;;;;;5.25;4.70;;;;;;;26.00;41.21;100102.55;1787159;78;21040;-70
2021/08/23 09:38:00;;;;;;;5.70;4.47;;;;;;;26.06;40.99;100101.53;1813896;78;21129;-70
2021/08/23 09:40:31;;;;;;;4.75;4.35;;;;;;;26.11;40.26;100112.98;1805343;78;21577;-69
2021/08/23 09:43:11;;;;;;;5.78;4.37;;;;;;;26.16;39.55;100098.86;1819612;78;21092;-70
2021/08/23 09:45:47;;;;;;;4.87;4.47;;;;;;;26.23;39.16;100099.98;1782534;78;21102;-69
2021/08/23 09:48:13;;;;;;;5.53;4.40;;;;;;;26.31;39.65;100096.78;1823335;78;21524;-69
2021/08/23 09:50:50;;;;;;;5.58;4.67;;;;;;;26.36;39.65;100091.34;1802890;78;21125;-70
2021/08/23 09:53:20;;;;;;;5.37;4.70;;;;;;;26.41;39.39;100091.37;1814557;78;20968;-69
2021/08/23 09:55:50;;;;;;;5.22;4.72;;;;;;;26.46;39.68;100092.78;1806004;78;21024;-70
2021/08/23 09:58:16;;;;;;;5.40;4.45;;;;;;;26.50;39.79;100090.31;1826408;78;21525;-70
2021/08/23 10:00:44;;;;;;;4.70;4.20;;;;;;;26.55;40.12;100086.81;1806004;78;20989;-71
2021/08/23 10:03:15;;;;;;;4.58;4.17;;;;;;;26.59;40.62;100083.86;1782633;78;21095;-69
2021/08/23 10:05:47;;;;;;;5.05;4.50;;;;;;;26.64;41.02;100088.79;1800315;78;21012;-69
2021/08/23 10:08:24;;;;;;;5.20;4.50;;;;;;;26.70;41.16;100082.82;1798815;78;20998;-69
2021/08/23 10:10:51;;;;;;;5.92;4.80;;;;;;;26.77;41.06;100079.31;1801241;78;21033;-70
2021/08/23 10:13:18;;;;;;;4.40;4.00;;;;;;;26.82;41.11;100086.12;1832280;77;21056;-69
2021/08/23 10:15:44;;;;;;;5.60;5.10;;;;;;;26.87;40.97;100077.16;1826241;78;21090;-69
2021/08/23 10:18:11;;;;;;;5.78;5.22;;;;;;;26.92;40.82;100073.63;1805907;78;21067;-70
2021/08/23 10:20:39;;;;;;;6.35;5.10;;;;;;;26.97;40.44;100072.28;1782310;78;21001;-69
2021/08/23 10:23:05;;;;;;;7.55;4.78;;;;;;;27.00;40.38;100066.27;1782256;78;21020;-70
2021/08/23 10:25:32;;;;;;;4.90;4.25;;;;;;;27.03;40.37;100079.38;1795295;78;21057;-69
2021/08/23 10:28:12;;;;;;;7.00;5.03;;;;;;;27.04;40.44;100081.00;1782462;78;21119;-69
2021/08/23 10:30:39;;;;;;;5.40;4.85;;;;;;;27.06;40.19;100085.63;1812637;78;21037;-67
2021/08/23 10:33:16;;;;;;;4.83;4.35;;;;;;;27.09;40.24;100076.12;1817082;78;21095;-71
2021/08/23 10:35:56;;;;;;;5.42;4.60;;;;;;;27.10;39.90;100086.77;1793840;78;21040;-69
2021/08/23 10:38:24;;;;;;;6.78;4.92;;;;;;;27.12;40.01;100084.58;1814706;78;21049;-69
2021/08/23 10:41:15;;;;;;;6.25;4.10;;;;;;;27.14;39.97;100086.49;1804110;78;21811;-68
2021/08/23 10:44:00;;;;;;;4.20;3.80;;;;;;;27.17;39.94;100080.48;1803712;78;21036;-69
2021/08/23 10:46:36;;;;;;;4.50;3.92;;;;;;;27.19;39.77;100085.12;1816534;78;21044;-70
2021/08/23 10:49:14;;;;;;;5.70;4.20;;;;;;;27.21;39.48;100079.41;1811684;78;21049;-70
2021/08/23 10:51:47;;;;;;;5.78;5.15;;;;;;;27.22;39.47;100072.32;1803018;78;21025;-69
2021/08/23 10:54:25;;;;;;;5.90;4.80;;;;;;;27.25;39.37;100073.19;1807349;77;21840;-70
2021/08/23 10:57:06;;;;;;;4.65;4.22;;;;;;;27.28;39.43;100067.72;1793280;78;20964;-70
2021/08/23 10:59:49;;;;;;;5.08;4.58;;;;;;;27.31;39.42;100066.35;1801943;78;21611;-72
2021/08/23 11:02:32;;;;;;;6.45;4.60;;;;;;;27.35;39.18;100070.17;1813168;78;21083;-70
2021/08/23 11:05:09;;;;;;;5.03;4.50;;;;;;;27.38;39.05;100070.45;1816251;78;21004;-69
2021/08/23 11:07:35;;;;;;;4.75;4.35;;;;;;;27.40;39.10;100071.00;1793204;78;21294;-70
2021/08/23 11:10:11;;;;;;;4.80;4.17;;;;;;;27.44;38.65;100069.91;1819215;78;21025;-70
2021/08/23 11:12:51;;;;;;;5.95;4.45;;;;;;;27.47;39.04;100074.83;1810670;78;21102;-71
2021/08/23 11:15:30;;;;;;;4.90;4.50;;;;;;;27.51;39.00;100071.83;1802516;78;21103;-70
2021/08/23 11:17:59;;;;;;;4.90;4.00;;;;;;;27.55;39.02;100072.92;1797005;78;21543;-69
2021/08/23 11:20:29;;;;;;;4.15;3.83;;;;;;;27.58;39.22;100071.55;1793454;78;21103;-69
2021/08/23 11:23:08;;;;;;;4.87;4.37;;;;;;;27.60;39.33;100072.09;1793309;78;21064;-69